createdAt,value
2018-07-05T00:00:31.694Z,0.00
2018-07-05T00:01:38.169Z,0.00
2018-07-05T00:02:44.633Z,0.00
2018-07-05T00:03:51.096Z,0.00
2018-07-05T00:04:57.562Z,0.00
2018-07-05T00:06:04.033Z,0.00
2018-07-05T00:07:10.504Z,0.00
2018-07-05T00:08:16.963Z,0.00
2018-07-05T00:09:23.437Z,0.00
2018-07-05T00:10:29.917Z,0.00
2018-07-05T00:11:36.387Z,0.00
2018-07-05T00:12:42.855Z,0.00
2018-07-05T00:13:49.331Z,0.00
2018-07-05T00:14:55.883Z,0.00
2018-07-05T00:16:02.286Z,0.00
2018-07-05T00:17:08.750Z,0.00
2018-07-05T00:18:15.217Z,0.00
2018-07-05T00:19:21.705Z,0.00
2018-07-05T00:20:28.176Z,0.00
2018-07-05T00:21:34.642Z,0.00
2018-07-05T00:22:41.106Z,0.00
2018-07-05T00:23:47.583Z,0.00
2018-07-05T00:24:54.042Z,0.00
2018-07-05T00:26:00.523Z,0.00
2018-07-05T00:27:06.969Z,0.00
2018-07-05T00:28:13.443Z,0.00
2018-07-05T00:29:19.905Z,0.00
2018-07-05T00:30:26.372Z,0.00
2018-07-05T00:31:33.035Z,0.00
2018-07-05T00:32:39.308Z,0.00
2018-07-05T00:33:45.772Z,0.00
2018-07-05T00:34:52.243Z,0.00
2018-07-05T00:35:58.716Z,0.00
2018-07-05T00:37:05.174Z,0.00
2018-07-05T00:38:11.946Z,0.00
2018-07-05T00:39:18.103Z,0.00
2018-07-05T00:40:24.578Z,0.00
2018-07-05T00:41:31.030Z,0.00
2018-07-05T00:42:37.481Z,0.00
2018-07-05T00:43:43.940Z,0.00
2018-07-05T00:44:50.405Z,0.00
2018-07-05T00:45:56.891Z,0.00
2018-07-05T00:47:03.333Z,0.00
2018-07-05T00:48:09.878Z,0.00
2018-07-05T00:49:16.254Z,0.00
2018-07-05T00:50:22.708Z,0.00
2018-07-05T00:51:29.182Z,0.00
2018-07-05T00:52:35.632Z,0.00
2018-07-05T00:53:42.101Z,0.00
2018-07-05T00:54:48.559Z,0.00
2018-07-05T00:55:55.037Z,0.00
2018-07-05T00:57:01.483Z,0.00
2018-07-05T00:58:07.922Z,0.00
2018-07-05T00:59:14.379Z,0.00
2018-07-05T01:00:20.837Z,0.00
2018-07-05T01:01:27.295Z,0.00
2018-07-05T01:02:33.756Z,0.00
2018-07-05T01:03:40.210Z,0.00
2018-07-05T01:04:46.661Z,0.00
2018-07-05T01:05:53.119Z,0.00
2018-07-05T01:06:59.583Z,0.00
2018-07-05T01:08:06.041Z,0.00
2018-07-05T01:09:12.498Z,0.00
2018-07-05T01:10:18.948Z,0.00
2018-07-05T01:11:25.412Z,0.00
2018-07-05T01:12:31.879Z,0.00
2018-07-05T01:13:38.329Z,0.00
2018-07-05T01:14:44.788Z,0.00
2018-07-05T01:15:51.242Z,0.00
2018-07-05T01:16:57.714Z,0.00
2018-07-05T01:18:04.158Z,0.00
2018-07-05T01:19:10.625Z,0.00
2018-07-05T01:20:17.077Z,0.00
2018-07-05T01:21:24.535Z,0.00
2018-07-05T01:22:30.012Z,0.00
2018-07-05T01:23:36.464Z,0.00
2018-07-05T01:24:42.916Z,0.00
2018-07-05T01:25:49.374Z,0.00
2018-07-05T01:26:55.835Z,0.00
2018-07-05T01:28:02.288Z,0.00
2018-07-05T01:29:08.740Z,0.00
2018-07-05T01:30:15.185Z,0.00
2018-07-05T01:31:21.627Z,0.00
2018-07-05T01:32:28.088Z,0.00
2018-07-05T01:33:34.523Z,0.00
2018-07-05T01:34:40.961Z,0.00
2018-07-05T01:35:47.417Z,0.00
2018-07-05T01:36:53.852Z,0.00
2018-07-05T01:38:00.304Z,0.00
2018-07-05T01:39:06.755Z,0.00
2018-07-05T01:40:13.191Z,0.00
2018-07-05T01:41:20.648Z,0.00
2018-07-05T01:42:26.105Z,0.00
2018-07-05T01:43:32.543Z,0.00
2018-07-05T01:44:39.003Z,0.00
2018-07-05T01:45:45.436Z,0.00
2018-07-05T01:46:51.888Z,0.00
2018-07-05T01:47:58.350Z,0.00
2018-07-05T01:49:04.789Z,0.00
2018-07-05T01:50:11.248Z,0.00
2018-07-05T01:51:17.707Z,0.00
2018-07-05T01:52:24.151Z,0.00
2018-07-05T01:53:30.597Z,0.00
2018-07-05T01:54:37.029Z,0.00
2018-07-05T01:55:43.485Z,0.00
2018-07-05T01:56:49.919Z,0.00
2018-07-05T01:57:56.377Z,0.00
2018-07-05T01:59:02.813Z,0.00
2018-07-05T02:00:09.256Z,0.00
2018-07-05T02:01:15.693Z,0.00
2018-07-05T02:02:22.136Z,0.00
2018-07-05T02:03:28.592Z,0.00
2018-07-05T02:04:35.024Z,0.00
2018-07-05T02:05:41.469Z,0.00
2018-07-05T02:06:47.918Z,0.00
2018-07-05T02:07:54.371Z,0.00
2018-07-05T02:09:00.830Z,0.00
2018-07-05T02:10:07.284Z,0.00
2018-07-05T02:11:14.231Z,0.00
2018-07-05T02:12:20.204Z,0.00
2018-07-05T02:13:27.641Z,0.00
2018-07-05T02:14:33.166Z,0.00
2018-07-05T02:15:39.535Z,0.00
2018-07-05T02:16:45.985Z,0.00
2018-07-05T02:17:52.423Z,0.00
2018-07-05T02:18:58.882Z,0.00
2018-07-05T02:20:05.322Z,0.00
2018-07-05T02:21:11.765Z,0.00
2018-07-05T02:22:18.218Z,0.00
2018-07-05T02:23:24.669Z,0.00
2018-07-05T02:24:31.117Z,0.00
2018-07-05T02:25:37.562Z,0.00
2018-07-05T02:26:44.010Z,0.00
2018-07-05T02:27:50.453Z,0.00
2018-07-05T02:28:56.910Z,0.00
2018-07-05T02:30:03.354Z,0.00
2018-07-05T02:31:09.890Z,0.00
2018-07-05T02:32:16.242Z,0.00
2018-07-05T02:33:23.188Z,0.00
2018-07-05T02:34:29.142Z,0.00
2018-07-05T02:35:35.570Z,0.00
2018-07-05T02:36:42.026Z,0.00
2018-07-05T02:37:48.454Z,0.00
2018-07-05T02:38:54.906Z,0.00
2018-07-05T02:40:01.347Z,0.00
2018-07-05T02:41:07.781Z,0.00
2018-07-05T02:42:14.220Z,0.00
2018-07-05T02:43:20.665Z,0.00
2018-07-05T02:44:27.117Z,0.00
2018-07-05T02:45:33.548Z,0.00
2018-07-05T02:46:39.995Z,0.00
2018-07-05T02:47:46.939Z,0.00
2018-07-05T02:48:52.876Z,0.00
2018-07-05T02:49:59.335Z,0.00
2018-07-05T02:51:05.765Z,0.00
2018-07-05T02:52:12.210Z,0.00
2018-07-05T02:53:18.643Z,0.00
2018-07-05T02:54:25.101Z,0.00
2018-07-05T02:55:31.528Z,0.00
2018-07-05T02:56:37.983Z,0.00
2018-07-05T02:57:44.411Z,0.00
2018-07-05T02:58:50.858Z,0.00
2018-07-05T02:59:57.297Z,0.00
2018-07-05T03:01:03.723Z,0.00
2018-07-05T03:02:10.169Z,0.00
2018-07-05T03:03:16.606Z,0.00
2018-07-05T03:04:23.039Z,0.00
2018-07-05T03:05:29.458Z,0.00
2018-07-05T03:06:35.892Z,0.00
2018-07-05T03:07:42.317Z,0.00
2018-07-05T03:08:48.756Z,0.00
2018-07-05T03:09:55.199Z,0.00
2018-07-05T03:11:01.631Z,0.00
2018-07-05T03:12:08.061Z,5.63
2018-07-05T03:13:14.498Z,5.63
2018-07-05T03:14:20.929Z,5.63
2018-07-05T03:15:27.374Z,5.63
2018-07-05T03:16:33.885Z,5.63
2018-07-05T03:17:40.257Z,5.63
2018-07-05T03:18:46.680Z,5.63
2018-07-05T03:19:53.124Z,5.63
2018-07-05T03:20:59.570Z,11.25
2018-07-05T03:22:06.006Z,11.25
2018-07-05T03:23:12.450Z,11.25
2018-07-05T03:24:18.892Z,11.25
2018-07-05T03:25:25.336Z,11.25
2018-07-05T03:26:31.772Z,16.88
2018-07-05T03:27:38.214Z,16.88
2018-07-05T03:28:44.663Z,16.88
2018-07-05T03:29:51.098Z,16.88
2018-07-05T03:30:57.550Z,16.88
2018-07-05T03:32:03.980Z,22.50
2018-07-05T03:33:10.427Z,22.50
2018-07-05T03:34:17.892Z,22.50
2018-07-05T03:35:23.312Z,22.50
2018-07-05T03:36:29.761Z,28.13
2018-07-05T03:37:36.189Z,28.13
2018-07-05T03:38:42.626Z,28.13
2018-07-05T03:39:49.075Z,28.13
2018-07-05T03:40:55.520Z,33.75
2018-07-05T03:42:01.960Z,33.75
2018-07-05T03:43:08.591Z,33.75
2018-07-05T03:44:14.834Z,33.75
2018-07-05T03:45:21.272Z,39.38
2018-07-05T03:46:27.730Z,39.38
2018-07-05T03:47:35.169Z,39.38
2018-07-05T03:48:40.604Z,45.00
2018-07-05T03:49:47.239Z,45.00
2018-07-05T03:50:53.500Z,45.00
2018-07-05T03:51:59.940Z,50.63
2018-07-05T03:53:06.381Z,50.63
2018-07-05T03:54:12.834Z,50.63
2018-07-05T03:55:19.274Z,50.63
2018-07-05T03:56:25.737Z,56.25
2018-07-05T03:57:32.182Z,56.25
2018-07-05T03:58:38.623Z,56.25
2018-07-05T03:59:45.081Z,61.88
2018-07-05T04:00:51.539Z,61.88
2018-07-05T04:01:58.008Z,61.88
2018-07-05T04:03:04.454Z,61.88
2018-07-05T04:04:10.914Z,61.88
2018-07-05T04:05:17.369Z,67.50
2018-07-05T04:06:23.901Z,67.50
2018-07-05T04:07:30.287Z,67.50
2018-07-05T04:08:36.745Z,67.50
2018-07-05T04:09:43.207Z,73.13
2018-07-05T04:10:49.662Z,73.13
2018-07-05T04:11:56.127Z,73.13
2018-07-05T04:13:02.578Z,78.75
2018-07-05T04:14:09.046Z,78.75
2018-07-05T04:15:15.510Z,78.75
2018-07-05T04:16:22.990Z,84.38
2018-07-05T04:17:28.439Z,84.38
2018-07-05T04:18:34.929Z,90.00
2018-07-05T04:19:41.371Z,90.00
2018-07-05T04:20:47.836Z,90.00
2018-07-05T04:21:54.316Z,95.63
2018-07-05T04:23:00.788Z,95.63
2018-07-05T04:24:07.299Z,95.63
2018-07-05T04:25:13.756Z,101.25
2018-07-05T04:26:20.191Z,101.25
2018-07-05T04:27:26.685Z,101.25
2018-07-05T04:28:33.144Z,101.25
2018-07-05T04:29:39.609Z,101.25
2018-07-05T04:30:46.096Z,106.88
2018-07-05T04:31:52.581Z,106.88
2018-07-05T04:32:59.054Z,106.88
2018-07-05T04:34:05.560Z,106.88
2018-07-05T04:35:12.001Z,106.88
2018-07-05T04:36:18.460Z,106.88
2018-07-05T04:37:24.949Z,112.50
2018-07-05T04:38:31.423Z,112.50
2018-07-05T04:39:37.894Z,112.50
2018-07-05T04:40:45.364Z,112.50
2018-07-05T04:41:50.846Z,112.50
2018-07-05T04:42:57.331Z,112.50
2018-07-05T04:44:03.896Z,118.13
2018-07-05T04:45:10.290Z,118.13
2018-07-05T04:46:16.764Z,118.13
2018-07-05T04:47:23.264Z,118.13
2018-07-05T04:48:29.737Z,123.75
2018-07-05T04:49:36.216Z,123.75
2018-07-05T04:50:43.695Z,123.75
2018-07-05T04:51:49.184Z,123.75
2018-07-05T04:52:55.673Z,129.38
2018-07-05T04:54:02.153Z,129.38
2018-07-05T04:55:08.636Z,129.38
2018-07-05T04:56:15.133Z,129.38
2018-07-05T04:57:21.586Z,129.38
2018-07-05T04:58:28.075Z,129.38
2018-07-05T04:59:34.554Z,129.38
2018-07-05T05:00:41.029Z,129.38
2018-07-05T05:01:47.505Z,135.00
2018-07-05T05:02:53.989Z,135.00
2018-07-05T05:04:00.469Z,135.00
2018-07-05T05:05:06.952Z,135.00
2018-07-05T05:06:13.437Z,135.00
2018-07-05T05:07:19.915Z,135.00
2018-07-05T05:08:26.407Z,135.00
2018-07-05T05:09:32.882Z,140.63
2018-07-05T05:10:39.369Z,140.63
2018-07-05T05:11:45.855Z,140.63
2018-07-05T05:12:52.355Z,140.63
2018-07-05T05:13:58.841Z,140.63
2018-07-05T05:15:05.340Z,140.63
2018-07-05T05:16:11.898Z,146.25
2018-07-05T05:17:18.317Z,146.25
2018-07-05T05:18:24.815Z,146.25
2018-07-05T05:19:31.314Z,146.25
2018-07-05T05:20:37.824Z,146.25
2018-07-05T05:21:44.325Z,146.25
2018-07-05T05:22:50.830Z,146.25
2018-07-05T05:23:57.335Z,151.88
2018-07-05T05:25:03.847Z,151.88
2018-07-05T05:26:10.345Z,151.88
2018-07-05T05:27:16.868Z,151.88
2018-07-05T05:28:23.385Z,151.88
2018-07-05T05:29:29.894Z,151.88
2018-07-05T05:30:36.411Z,157.50
2018-07-05T05:31:42.920Z,157.50
2018-07-05T05:32:50.449Z,157.50
2018-07-05T05:33:55.976Z,157.50
2018-07-05T05:35:02.488Z,157.50
2018-07-05T05:36:09.011Z,157.50
2018-07-05T05:37:15.534Z,157.50
2018-07-05T05:38:22.067Z,163.13
2018-07-05T05:39:28.607Z,163.13
2018-07-05T05:40:35.123Z,163.13
2018-07-05T05:41:41.651Z,163.13
2018-07-05T05:42:48.185Z,163.13
2018-07-05T05:43:54.736Z,163.13
2018-07-05T05:45:01.257Z,168.75
2018-07-05T05:46:07.888Z,168.75
2018-07-05T05:47:14.349Z,168.75
2018-07-05T05:48:20.888Z,168.75
2018-07-05T05:49:27.432Z,168.75
2018-07-05T05:50:33.966Z,174.38
2018-07-05T05:51:40.512Z,174.38
2018-07-05T05:52:47.055Z,174.38
2018-07-05T05:53:53.917Z,174.38
2018-07-05T05:55:01.157Z,174.38
2018-07-05T05:56:06.706Z,168.75
2018-07-05T05:57:13.258Z,168.75
2018-07-05T05:58:19.889Z,163.13
2018-07-05T05:59:26.371Z,168.75
2018-07-05T06:00:32.924Z,168.75
2018-07-05T06:01:39.472Z,163.13
2018-07-05T06:02:46.024Z,163.13
2018-07-05T06:03:52.581Z,163.13
2018-07-05T06:04:59.138Z,163.13
2018-07-05T06:06:05.686Z,163.13
2018-07-05T06:07:12.241Z,168.75
2018-07-05T06:08:18.801Z,168.75
2018-07-05T06:09:25.373Z,168.75
2018-07-05T06:10:31.925Z,168.75
2018-07-05T06:11:38.488Z,174.38
2018-07-05T06:12:45.058Z,174.38
2018-07-05T06:13:51.619Z,174.38
2018-07-05T06:14:58.200Z,174.38
2018-07-05T06:16:04.753Z,174.38
2018-07-05T06:17:11.321Z,174.38
2018-07-05T06:18:17.881Z,174.38
2018-07-05T06:19:24.462Z,174.38
2018-07-05T06:20:31.030Z,174.38
2018-07-05T06:21:37.603Z,174.38
2018-07-05T06:22:44.167Z,174.38
2018-07-05T06:23:50.751Z,174.38
2018-07-05T06:24:57.323Z,180.00
2018-07-05T06:26:03.896Z,180.00
2018-07-05T06:27:10.463Z,180.00
2018-07-05T06:28:17.050Z,185.63
2018-07-05T06:29:23.622Z,180.00
2018-07-05T06:30:30.203Z,185.63
2018-07-05T06:31:36.781Z,185.63
2018-07-05T06:32:43.362Z,191.25
2018-07-05T06:33:49.947Z,191.25
2018-07-05T06:34:56.539Z,191.25
2018-07-05T06:36:03.116Z,196.88
2018-07-05T06:37:09.700Z,196.88
2018-07-05T06:38:16.308Z,196.88
2018-07-05T06:39:22.892Z,202.50
2018-07-05T06:40:29.489Z,202.50
2018-07-05T06:41:36.094Z,202.50
2018-07-05T06:42:42.693Z,202.50
2018-07-05T06:43:49.884Z,208.13
2018-07-05T06:44:55.908Z,208.13
2018-07-05T06:46:02.522Z,213.75
2018-07-05T06:47:09.129Z,213.75
2018-07-05T06:48:15.733Z,219.38
2018-07-05T06:49:22.398Z,219.38
2018-07-05T06:50:29.476Z,219.38
2018-07-05T06:51:35.597Z,219.38
2018-07-05T06:52:42.206Z,219.38
2018-07-05T06:53:48.833Z,219.38
2018-07-05T06:54:55.455Z,219.38
2018-07-05T06:56:02.100Z,219.38
2018-07-05T06:57:08.721Z,225.00
2018-07-05T06:58:15.347Z,225.00
2018-07-05T06:59:21.984Z,219.38
2018-07-05T07:00:28.624Z,225.00
2018-07-05T07:01:35.261Z,230.63
2018-07-05T07:02:41.894Z,236.25
2018-07-05T07:03:48.535Z,230.63
2018-07-05T07:04:55.175Z,236.25
2018-07-05T07:06:01.902Z,258.75
2018-07-05T07:07:08.462Z,258.75
2018-07-05T07:08:15.105Z,258.75
2018-07-05T07:09:21.745Z,253.13
2018-07-05T07:10:28.409Z,253.13
2018-07-05T07:11:35.057Z,247.50
2018-07-05T07:12:41.724Z,241.88
2018-07-05T07:13:48.374Z,236.25
2018-07-05T07:14:55.028Z,241.88
2018-07-05T07:16:01.773Z,253.13
2018-07-05T07:17:08.366Z,258.75
2018-07-05T07:18:15.031Z,258.75
2018-07-05T07:19:21.700Z,258.75
2018-07-05T07:20:28.373Z,258.75
2018-07-05T07:21:35.123Z,264.38
2018-07-05T07:22:41.703Z,270.00
2018-07-05T07:23:48.381Z,275.63
2018-07-05T07:24:55.053Z,286.88
2018-07-05T07:26:01.747Z,281.25
2018-07-05T07:27:08.424Z,281.25
2018-07-05T07:28:15.102Z,309.38
2018-07-05T07:29:21.884Z,315.00
2018-07-05T07:30:28.492Z,331.88
2018-07-05T07:31:35.229Z,326.25
2018-07-05T07:32:41.884Z,326.25
2018-07-05T07:33:48.602Z,326.25
2018-07-05T07:34:55.293Z,331.88
2018-07-05T07:36:02.313Z,337.50
2018-07-05T07:37:08.723Z,337.50
2018-07-05T07:38:15.446Z,337.50
2018-07-05T07:39:22.157Z,343.13
2018-07-05T07:40:28.874Z,348.75
2018-07-05T07:41:35.606Z,343.13
2018-07-05T07:42:42.318Z,343.13
2018-07-05T07:43:49.063Z,348.75
2018-07-05T07:44:55.885Z,354.38
2018-07-05T07:46:02.531Z,354.38
2018-07-05T07:47:09.274Z,365.63
2018-07-05T07:48:16.016Z,371.25
2018-07-05T07:49:22.766Z,376.88
2018-07-05T07:50:29.513Z,388.13
2018-07-05T07:51:36.280Z,405.00
2018-07-05T07:52:43.039Z,405.00
2018-07-05T07:53:49.891Z,405.00
2018-07-05T07:54:56.548Z,410.63
2018-07-05T07:56:03.326Z,421.88
2018-07-05T07:57:10.114Z,410.63
2018-07-05T07:58:16.934Z,399.38
2018-07-05T07:59:23.663Z,393.75
2018-07-05T08:00:30.451Z,376.88
2018-07-05T08:01:37.260Z,371.25
2018-07-05T08:02:44.065Z,388.13
2018-07-05T08:03:50.854Z,388.13
2018-07-05T08:04:57.656Z,388.13
2018-07-05T08:06:04.459Z,388.13
2018-07-05T08:07:11.270Z,388.13
2018-07-05T08:08:18.125Z,388.13
2018-07-05T08:09:24.876Z,388.13
2018-07-05T08:10:31.699Z,393.75
2018-07-05T08:11:38.510Z,393.75
2018-07-05T08:12:45.320Z,393.75
2018-07-05T08:13:52.135Z,399.38
2018-07-05T08:14:58.988Z,410.63
2018-07-05T08:16:05.756Z,416.25
2018-07-05T08:17:12.589Z,427.50
2018-07-05T08:18:19.402Z,438.75
2018-07-05T08:19:26.216Z,461.25
2018-07-05T08:20:33.144Z,461.25
2018-07-05T08:21:39.867Z,472.50
2018-07-05T08:22:46.717Z,472.50
2018-07-05T08:23:53.525Z,483.75
2018-07-05T08:25:00.381Z,495.00
2018-07-05T08:26:07.201Z,500.63
2018-07-05T08:27:14.048Z,506.25
2018-07-05T08:28:20.883Z,511.88
2018-07-05T08:29:27.720Z,523.13
2018-07-05T08:30:34.560Z,506.25
2018-07-05T08:31:41.419Z,517.50
2018-07-05T08:32:48.250Z,523.13
2018-07-05T08:33:55.121Z,517.50
2018-07-05T08:35:01.976Z,534.38
2018-07-05T08:36:08.824Z,545.63
2018-07-05T08:37:15.754Z,556.88
2018-07-05T08:38:22.568Z,568.13
2018-07-05T08:39:29.430Z,568.13
2018-07-05T08:40:36.351Z,562.50
2018-07-05T08:41:43.194Z,568.13
2018-07-05T08:42:50.072Z,573.75
2018-07-05T08:43:56.970Z,585.00
2018-07-05T08:45:03.852Z,585.00
2018-07-05T08:46:10.738Z,585.00
2018-07-05T08:47:17.632Z,562.50
2018-07-05T08:48:24.539Z,573.75
2018-07-05T08:49:31.436Z,568.13
2018-07-05T08:50:38.340Z,568.13
2018-07-05T08:51:45.270Z,562.50
2018-07-05T08:52:52.151Z,551.25
2018-07-05T08:53:59.069Z,562.50
2018-07-05T08:55:05.984Z,562.50
2018-07-05T08:56:13.901Z,568.13
2018-07-05T08:57:19.821Z,568.13
2018-07-05T08:58:26.744Z,562.50
2018-07-05T08:59:33.673Z,551.25
2018-07-05T09:00:40.894Z,545.63
2018-07-05T09:01:47.708Z,540.00
2018-07-05T09:02:54.443Z,528.75
2018-07-05T09:04:01.384Z,517.50
2018-07-05T09:05:08.307Z,500.63
2018-07-05T09:06:15.233Z,489.38
2018-07-05T09:07:22.154Z,495.00
2018-07-05T09:08:29.084Z,495.00
2018-07-05T09:09:36.016Z,489.38
2018-07-05T09:10:42.929Z,483.75
2018-07-05T09:11:49.877Z,495.00
2018-07-05T09:12:56.779Z,506.25
2018-07-05T09:14:03.713Z,511.88
2018-07-05T09:15:10.637Z,517.50
2018-07-05T09:16:17.554Z,523.13
2018-07-05T09:17:24.505Z,540.00
2018-07-05T09:18:31.405Z,545.63
2018-07-05T09:19:38.335Z,556.88
2018-07-05T09:20:45.262Z,556.88
2018-07-05T09:21:52.178Z,556.88
2018-07-05T09:22:59.103Z,551.25
2018-07-05T09:24:06.043Z,556.88
2018-07-05T09:25:12.984Z,568.13
2018-07-05T09:26:19.909Z,573.75
2018-07-05T09:27:26.841Z,590.63
2018-07-05T09:28:33.769Z,607.50
2018-07-05T09:29:40.703Z,613.13
2018-07-05T09:30:47.648Z,613.13
2018-07-05T09:31:54.579Z,613.13
2018-07-05T09:33:01.518Z,607.50
2018-07-05T09:34:09.459Z,601.88
2018-07-05T09:35:15.413Z,601.88
2018-07-05T09:36:22.342Z,596.25
2018-07-05T09:37:29.296Z,590.63
2018-07-05T09:38:36.226Z,590.63
2018-07-05T09:39:43.167Z,585.00
2018-07-05T09:40:50.120Z,585.00
2018-07-05T09:41:57.047Z,585.00
2018-07-05T09:43:04.000Z,579.38
2018-07-05T09:44:10.945Z,573.75
2018-07-05T09:45:17.903Z,573.75
2018-07-05T09:46:24.868Z,579.38
2018-07-05T09:47:31.889Z,590.63
2018-07-05T09:48:38.756Z,596.25
2018-07-05T09:49:45.760Z,601.88
2018-07-05T09:50:52.691Z,607.50
2018-07-05T09:51:59.664Z,601.88
2018-07-05T09:53:06.590Z,613.13
2018-07-05T09:54:13.552Z,630.00
2018-07-05T09:55:20.524Z,635.63
2018-07-05T09:56:27.496Z,652.50
2018-07-05T09:57:34.448Z,658.13
2018-07-05T09:58:41.417Z,663.75
2018-07-05T09:59:48.387Z,680.63
2018-07-05T10:00:55.362Z,680.63
2018-07-05T10:02:02.329Z,680.63
2018-07-05T10:03:09.299Z,675.00
2018-07-05T10:04:16.281Z,663.75
2018-07-05T10:05:23.271Z,658.13
2018-07-05T10:06:30.233Z,658.13
2018-07-05T10:07:37.220Z,663.75
2018-07-05T10:08:44.212Z,663.75
2018-07-05T10:09:51.201Z,663.75
2018-07-05T10:10:58.197Z,669.38
2018-07-05T10:12:05.180Z,686.25
2018-07-05T10:13:12.527Z,691.88
2018-07-05T10:14:19.186Z,686.25
2018-07-05T10:15:26.194Z,691.88
2018-07-05T10:16:33.223Z,731.25
2018-07-05T10:17:40.227Z,781.88
2018-07-05T10:18:47.253Z,832.50
2018-07-05T10:19:54.281Z,866.25
2018-07-05T10:21:01.328Z,888.75
2018-07-05T10:22:08.367Z,916.88
2018-07-05T10:23:15.419Z,945.00
2018-07-05T10:24:22.477Z,945.00
2018-07-05T10:25:29.549Z,922.50
2018-07-05T10:26:36.620Z,894.38
2018-07-05T10:27:43.685Z,860.63
2018-07-05T10:28:50.762Z,810.00
2018-07-05T10:29:57.834Z,731.25
2018-07-05T10:31:04.911Z,697.50
2018-07-05T10:32:11.987Z,731.25
2018-07-05T10:33:19.040Z,787.50
2018-07-05T10:34:26.116Z,849.38
2018-07-05T10:35:33.181Z,905.63
2018-07-05T10:36:40.272Z,973.13
2018-07-05T10:37:47.347Z,1035.00
2018-07-05T10:38:54.453Z,1085.63
2018-07-05T10:40:02.556Z,1125.00
2018-07-05T10:41:08.667Z,1175.63
2018-07-05T10:42:15.802Z,1215.00
2018-07-05T10:43:22.924Z,1231.88
2018-07-05T10:44:30.071Z,1254.38
2018-07-05T10:45:37.228Z,1282.50
2018-07-05T10:46:44.405Z,1293.75
2018-07-05T10:47:52.577Z,1282.50
2018-07-05T10:48:58.763Z,1271.25
2018-07-05T10:50:05.959Z,1260.00
2018-07-05T10:51:13.152Z,1226.25
2018-07-05T10:52:20.371Z,1198.13
2018-07-05T10:53:27.573Z,1170.00
2018-07-05T10:54:34.775Z,1158.75
2018-07-05T10:55:41.993Z,1164.38
2018-07-05T10:56:49.203Z,1170.00
2018-07-05T10:57:56.392Z,1158.75
2018-07-05T10:59:03.623Z,1136.25
2018-07-05T11:00:10.835Z,1085.63
2018-07-05T11:01:18.063Z,1040.63
2018-07-05T11:02:25.287Z,1001.25
2018-07-05T11:03:32.481Z,984.38
2018-07-05T11:04:39.673Z,1001.25
2018-07-05T11:05:46.879Z,945.00
2018-07-05T11:06:55.069Z,871.88
2018-07-05T11:08:01.265Z,793.13
2018-07-05T11:09:08.452Z,675.00
2018-07-05T11:10:15.628Z,540.00
2018-07-05T11:11:22.787Z,309.38
2018-07-05T11:12:29.927Z,225.00
2018-07-05T11:13:37.042Z,185.63
2018-07-05T11:14:44.145Z,191.25
2018-07-05T11:15:51.158Z,225.00
2018-07-05T11:16:58.180Z,303.75
2018-07-05T11:18:05.161Z,416.25
2018-07-05T11:19:12.136Z,500.63
2018-07-05T11:20:19.075Z,517.50
2018-07-05T11:21:26.021Z,551.25
2018-07-05T11:22:32.956Z,500.63
2018-07-05T11:23:39.879Z,455.63
2018-07-05T11:24:46.809Z,450.00
2018-07-05T11:25:53.725Z,455.63
2018-07-05T11:27:00.641Z,466.88
2018-07-05T11:28:07.566Z,489.38
2018-07-05T11:29:14.481Z,500.63
2018-07-05T11:30:21.388Z,511.88
2018-07-05T11:31:28.308Z,523.13
2018-07-05T11:32:35.217Z,551.25
2018-07-05T11:33:42.147Z,590.63
2018-07-05T11:34:49.062Z,652.50
2018-07-05T11:35:55.988Z,748.13
2018-07-05T11:37:02.936Z,1378.13
2018-07-05T11:38:09.908Z,2261.25
2018-07-05T11:39:16.973Z,2115.00
2018-07-05T11:40:24.081Z,1771.88
2018-07-05T11:41:31.230Z,1552.50
2018-07-05T11:42:38.424Z,1035.00
2018-07-05T11:43:45.529Z,911.25
2018-07-05T11:44:52.654Z,995.63
2018-07-05T11:45:59.793Z,1035.00
2018-07-05T11:47:06.918Z,1006.88
2018-07-05T11:48:14.036Z,1040.63
2018-07-05T11:49:21.176Z,1164.38
2018-07-05T11:50:28.314Z,2688.75
2018-07-05T11:51:35.529Z,2390.63
2018-07-05T11:52:42.895Z,2857.50
2018-07-05T11:53:50.178Z,2683.13
2018-07-05T11:54:57.627Z,1867.50
2018-07-05T11:56:05.060Z,2491.88
2018-07-05T11:57:12.548Z,2503.13
2018-07-05T11:58:20.063Z,2002.50
2018-07-05T11:59:27.602Z,2221.88
2018-07-05T12:00:35.115Z,1248.75
2018-07-05T12:01:42.635Z,1192.50
2018-07-05T12:02:50.107Z,1558.13
2018-07-05T12:03:57.600Z,1496.25
2018-07-05T12:05:05.082Z,1068.75
2018-07-05T12:06:12.528Z,838.13
2018-07-05T12:07:19.964Z,1130.63
2018-07-05T12:08:27.387Z,1620.00
2018-07-05T12:09:34.909Z,843.75
2018-07-05T12:10:42.288Z,787.50
2018-07-05T12:11:49.632Z,720.00
2018-07-05T12:12:56.991Z,781.88
2018-07-05T12:14:04.333Z,1546.88
2018-07-05T12:15:11.686Z,1428.75
2018-07-05T12:16:19.034Z,1170.00
2018-07-05T12:17:26.396Z,978.75
2018-07-05T12:18:33.727Z,759.38
2018-07-05T12:19:41.053Z,720.00
2018-07-05T12:20:48.337Z,776.25
2018-07-05T12:21:55.609Z,691.88
2018-07-05T12:23:02.855Z,658.13
2018-07-05T12:24:10.097Z,613.13
2018-07-05T12:25:17.286Z,579.38
2018-07-05T12:26:24.450Z,556.88
2018-07-05T12:27:31.604Z,551.25
2018-07-05T12:28:38.729Z,568.13
2018-07-05T12:29:45.844Z,607.50
2018-07-05T12:30:52.964Z,691.88
2018-07-05T12:32:00.072Z,1108.13
2018-07-05T12:33:07.187Z,1462.50
2018-07-05T12:34:14.352Z,1912.50
2018-07-05T12:35:21.565Z,2002.50
2018-07-05T12:36:28.840Z,1676.25
2018-07-05T12:37:36.155Z,1243.13
2018-07-05T12:38:43.471Z,1389.38
2018-07-05T12:39:50.891Z,1338.75
2018-07-05T12:40:58.156Z,1586.25
2018-07-05T12:42:05.519Z,1130.63
2018-07-05T12:43:13.021Z,1158.75
2018-07-05T12:44:20.250Z,1029.38
2018-07-05T12:45:27.606Z,1023.75
2018-07-05T12:46:34.952Z,961.88
2018-07-05T12:47:42.289Z,1074.38
2018-07-05T12:48:49.608Z,973.13
2018-07-05T12:49:57.943Z,714.38
2018-07-05T12:51:04.263Z,686.25
2018-07-05T12:52:11.520Z,725.63
2018-07-05T12:53:18.888Z,860.63
2018-07-05T12:54:26.054Z,585.00
2018-07-05T12:55:33.290Z,568.13
2018-07-05T12:56:40.508Z,506.25
2018-07-05T12:57:48.673Z,545.63
2018-07-05T12:58:54.880Z,500.63
2018-07-05T13:00:03.033Z,427.50
2018-07-05T13:01:09.197Z,399.38
2018-07-05T13:02:16.301Z,376.88
2018-07-05T13:03:23.408Z,354.38
2018-07-05T13:04:30.523Z,343.13
2018-07-05T13:05:37.585Z,326.25
2018-07-05T13:06:44.637Z,315.00
2018-07-05T13:07:51.678Z,309.38
2018-07-05T13:08:58.715Z,303.75
2018-07-05T13:10:05.725Z,303.75
2018-07-05T13:11:12.737Z,298.13
2018-07-05T13:12:19.713Z,286.88
2018-07-05T13:13:26.690Z,286.88
2018-07-05T13:14:33.654Z,292.50
2018-07-05T13:15:40.598Z,303.75
2018-07-05T13:16:47.550Z,309.38
2018-07-05T13:17:54.492Z,326.25
2018-07-05T13:19:01.409Z,343.13
2018-07-05T13:20:08.350Z,360.00
2018-07-05T13:21:15.268Z,382.50
2018-07-05T13:22:22.178Z,393.75
2018-07-05T13:23:29.083Z,405.00
2018-07-05T13:24:35.996Z,416.25
2018-07-05T13:25:42.910Z,421.88
2018-07-05T13:26:49.831Z,433.13
2018-07-05T13:27:56.728Z,455.63
2018-07-05T13:29:03.647Z,483.75
2018-07-05T13:30:10.547Z,511.88
2018-07-05T13:31:17.467Z,506.25
2018-07-05T13:32:24.372Z,500.63
2018-07-05T13:33:31.282Z,489.38
2018-07-05T13:34:38.205Z,461.25
2018-07-05T13:35:45.105Z,427.50
2018-07-05T13:36:52.018Z,405.00
2018-07-05T13:37:58.930Z,393.75
2018-07-05T13:39:05.887Z,399.38
2018-07-05T13:40:12.673Z,416.25
2018-07-05T13:41:19.577Z,421.88
2018-07-05T13:42:26.432Z,405.00
2018-07-05T13:43:33.299Z,376.88
2018-07-05T13:44:40.179Z,337.50
2018-07-05T13:45:47.018Z,298.13
2018-07-05T13:46:53.918Z,258.75
2018-07-05T13:48:00.655Z,230.63
2018-07-05T13:49:07.484Z,213.75
2018-07-05T13:50:14.290Z,196.88
2018-07-05T13:51:21.082Z,191.25
2018-07-05T13:52:27.903Z,180.00
2018-07-05T13:53:34.683Z,174.38
2018-07-05T13:54:41.434Z,168.75
2018-07-05T13:55:48.178Z,168.75
2018-07-05T13:56:55.049Z,168.75
2018-07-05T13:58:01.670Z,168.75
2018-07-05T13:59:08.368Z,168.75
2018-07-05T14:00:15.066Z,174.38
2018-07-05T14:01:21.759Z,180.00
2018-07-05T14:02:28.660Z,180.00
2018-07-05T14:03:35.371Z,185.63
2018-07-05T14:04:41.903Z,185.63